sensor_id;sensor_type;location;lat;lon;timestamp;P1;durP1;ratioP1;P2;durP2;ratioP2
83410;SDS011;73340;53.132;8.174;2024-02-28T00:00:08;28.77;;;11.38;;
83410;SDS011;73340;53.132;8.174;2024-02-28T00:02:35;31.10;;;11.18;;
83410;SDS011;73340;53.132;8.174;2024-02-28T00:05:00;35.87;;;14.03;;
83410;SDS011;73340;53.132;8.174;2024-02-28T00:07:26;35.27;;;14.17;;
83410;SDS011;73340;53.132;8.174;2024-02-28T00:09:51;36.77;;;12.77;;
83410;SDS011;73340;53.132;8.174;2024-02-28T00:17:06;34.53;;;11.63;;
83410;SDS011;73340;53.132;8.174;2024-02-28T00:19:32;31.58;;;12.45;;
83410;SDS011;73340;53.132;8.174;2024-02-28T00:21:58;35.63;;;13.20;;
83410;SDS011;73340;53.132;8.174;2024-02-28T00:24:24;40.65;;;14.77;;
83410;SDS011;73340;53.132;8.174;2024-02-28T00:26:50;40.10;;;14.23;;
83410;SDS011;73340;53.132;8.174;2024-02-28T00:29:15;38.53;;;13.53;;
83410;SDS011;73340;53.132;8.174;2024-02-28T00:31:40;42.90;;;16.43;;
83410;SDS011;73340;53.132;8.174;2024-02-28T00:34:05;39.30;;;14.27;;
83410;SDS011;73340;53.132;8.174;2024-02-28T00:36:33;37.13;;;13.80;;
83410;SDS011;73340;53.132;8.174;2024-02-28T00:38:58;44.47;;;15.27;;
83410;SDS011;73340;53.132;8.174;2024-02-28T00:41:24;41.33;;;14.93;;
83410;SDS011;73340;53.132;8.174;2024-02-28T00:43:49;37.83;;;14.07;;
83410;SDS011;73340;53.132;8.174;2024-02-28T00:46:14;36.17;;;13.30;;
83410;SDS011;73340;53.132;8.174;2024-02-28T00:48:39;42.97;;;15.40;;
83410;SDS011;73340;53.132;8.174;2024-02-28T00:51:04;38.17;;;13.67;;
83410;SDS011;73340;53.132;8.174;2024-02-28T00:53:30;41.90;;;14.95;;
83410;SDS011;73340;53.132;8.174;2024-02-28T00:55:55;43.50;;;13.68;;
83410;SDS011;73340;53.132;8.174;2024-02-28T00:58:20;34.40;;;14.67;;
83410;SDS011;73340;53.132;8.174;2024-02-28T01:00:47;41.17;;;14.17;;
83410;SDS011;73340;53.132;8.174;2024-02-28T01:03:12;34.75;;;12.73;;
83410;SDS011;73340;53.132;8.174;2024-02-28T01:05:39;42.72;;;12.93;;
83410;SDS011;73340;53.132;8.174;2024-02-28T01:08:05;41.23;;;15.23;;
83410;SDS011;73340;53.132;8.174;2024-02-28T01:10:30;43.00;;;15.20;;
83410;SDS011;73340;53.132;8.174;2024-02-28T01:12:55;38.20;;;14.43;;
83410;SDS011;73340;53.132;8.174;2024-02-28T01:15:20;41.87;;;15.07;;
83410;SDS011;73340;53.132;8.174;2024-02-28T01:17:45;45.27;;;14.67;;
83410;SDS011;73340;53.132;8.174;2024-02-28T01:20:11;44.53;;;14.87;;
83410;SDS011;73340;53.132;8.174;2024-02-28T01:22:36;46.97;;;17.97;;
83410;SDS011;73340;53.132;8.174;2024-02-28T01:25:04;46.10;;;14.87;;
83410;SDS011;73340;53.132;8.174;2024-02-28T01:27:30;49.50;;;15.93;;
83410;SDS011;73340;53.132;8.174;2024-02-28T01:29:55;44.00;;;14.87;;
83410;SDS011;73340;53.132;8.174;2024-02-28T01:32:20;51.33;;;15.87;;
83410;SDS011;73340;53.132;8.174;2024-02-28T01:34:45;45.20;;;16.13;;
83410;SDS011;73340;53.132;8.174;2024-02-28T01:37:11;48.30;;;16.95;;
83410;SDS011;73340;53.132;8.174;2024-02-28T01:39:36;49.50;;;15.83;;
83410;SDS011;73340;53.132;8.174;2024-02-28T01:42:01;47.67;;;15.07;;
83410;SDS011;73340;53.132;8.174;2024-02-28T01:44:26;45.77;;;15.43;;
83410;SDS011;73340;53.132;8.174;2024-02-28T01:46:53;49.35;;;16.13;;
83410;SDS011;73340;53.132;8.174;2024-02-28T01:49:21;53.30;;;18.38;;
83410;SDS011;73340;53.132;8.174;2024-02-28T01:51:46;50.97;;;17.20;;
83410;SDS011;73340;53.132;8.174;2024-02-28T01:54:11;43.07;;;17.30;;
83410;SDS011;73340;53.132;8.174;2024-02-28T01:56:37;54.73;;;17.27;;
83410;SDS011;73340;53.132;8.174;2024-02-28T01:59:03;52.38;;;19.20;;
83410;SDS011;73340;53.132;8.174;2024-02-28T02:01:28;44.95;;;15.07;;
83410;SDS011;73340;53.132;8.174;2024-02-28T02:03:54;50.47;;;16.92;;
83410;SDS011;73340;53.132;8.174;2024-02-28T02:06:19;44.40;;;15.57;;
83410;SDS011;73340;53.132;8.174;2024-02-28T02:08:45;53.38;;;18.10;;
83410;SDS011;73340;53.132;8.174;2024-02-28T02:11:10;50.65;;;18.25;;
83410;SDS011;73340;53.132;8.174;2024-02-28T02:13:36;51.53;;;16.73;;
83410;SDS011;73340;53.132;8.174;2024-02-28T02:16:11;49.35;;;15.48;;
83410;SDS011;73340;53.132;8.174;2024-02-28T02:18:37;46.20;;;15.53;;
83410;SDS011;73340;53.132;8.174;2024-02-28T02:21:02;50.83;;;16.70;;
83410;SDS011;73340;53.132;8.174;2024-02-28T02:23:30;53.92;;;17.40;;
83410;SDS011;73340;53.132;8.174;2024-02-28T02:25:55;48.45;;;16.55;;
83410;SDS011;73340;53.132;8.174;2024-02-28T02:28:20;51.03;;;17.10;;
83410;SDS011;73340;53.132;8.174;2024-02-28T02:30:45;51.23;;;16.47;;
83410;SDS011;73340;53.132;8.174;2024-02-28T02:33:12;49.63;;;16.88;;
83410;SDS011;73340;53.132;8.174;2024-02-28T02:35:37;46.50;;;16.63;;
83410;SDS011;73340;53.132;8.174;2024-02-28T02:38:02;49.30;;;15.97;;
83410;SDS011;73340;53.132;8.174;2024-02-28T02:40:28;47.60;;;15.93;;
83410;SDS011;73340;53.132;8.174;2024-02-28T02:42:53;44.43;;;15.87;;
83410;SDS011;73340;53.132;8.174;2024-02-28T02:45:18;42.40;;;15.23;;
83410;SDS011;73340;53.132;8.174;2024-02-28T02:47:43;45.73;;;17.33;;
83410;SDS011;73340;53.132;8.174;2024-02-28T02:50:11;47.40;;;17.27;;
83410;SDS011;73340;53.132;8.174;2024-02-28T02:52:37;47.45;;;14.98;;
83410;SDS011;73340;53.132;8.174;2024-02-28T02:55:02;47.03;;;15.83;;
83410;SDS011;73340;53.132;8.174;2024-02-28T02:57:27;50.65;;;16.45;;
83410;SDS011;73340;53.132;8.174;2024-02-28T02:59:52;50.43;;;17.30;;
83410;SDS011;73340;53.132;8.174;2024-02-28T03:02:17;48.73;;;16.33;;
83410;SDS011;73340;53.132;8.174;2024-02-28T03:04:43;47.90;;;14.47;;
83410;SDS011;73340;53.132;8.174;2024-02-28T03:07:08;46.07;;;15.17;;
83410;SDS011;73340;53.132;8.174;2024-02-28T03:09:33;44.60;;;16.73;;
83410;SDS011;73340;53.132;8.174;2024-02-28T03:11:58;46.92;;;15.23;;
83410;SDS011;73340;53.132;8.174;2024-02-28T03:14:24;47.20;;;15.73;;
83410;SDS011;73340;53.132;8.174;2024-02-28T03:16:52;43.25;;;16.63;;
83410;SDS011;73340;53.132;8.174;2024-02-28T03:19:17;44.77;;;15.57;;
83410;SDS011;73340;53.132;8.174;2024-02-28T03:21:42;46.33;;;15.97;;
83410;SDS011;73340;53.132;8.174;2024-02-28T03:24:07;43.20;;;15.00;;
83410;SDS011;73340;53.132;8.174;2024-02-28T03:26:32;40.63;;;13.97;;
83410;SDS011;73340;53.132;8.174;2024-02-28T03:28:58;47.97;;;17.50;;
83410;SDS011;73340;53.132;8.174;2024-02-28T03:31:24;43.08;;;15.40;;
83410;SDS011;73340;53.132;8.174;2024-02-28T03:33:49;40.57;;;15.30;;
83410;SDS011;73340;53.132;8.174;2024-02-28T03:36:14;36.53;;;14.87;;
83410;SDS011;73340;53.132;8.174;2024-02-28T03:38:39;45.87;;;14.00;;
83410;SDS011;73340;53.132;8.174;2024-02-28T03:41:05;42.60;;;14.60;;
83410;SDS011;73340;53.132;8.174;2024-02-28T03:43:30;40.33;;;13.43;;
83410;SDS011;73340;53.132;8.174;2024-02-28T03:45:56;38.08;;;14.48;;
83410;SDS011;73340;53.132;8.174;2024-02-28T03:48:21;36.93;;;13.70;;
83410;SDS011;73340;53.132;8.174;2024-02-28T03:50:46;36.37;;;11.77;;
83410;SDS011;73340;53.132;8.174;2024-02-28T03:53:11;43.03;;;14.57;;
83410;SDS011;73340;53.132;8.174;2024-02-28T03:55:36;45.60;;;14.67;;
83410;SDS011;73340;53.132;8.174;2024-02-28T03:58:02;39.85;;;13.07;;
83410;SDS011;73340;53.132;8.174;2024-02-28T04:00:28;49.13;;;16.17;;
83410;SDS011;73340;53.132;8.174;2024-02-28T04:02:53;46.33;;;15.03;;
83410;SDS011;73340;53.132;8.174;2024-02-28T04:05:18;43.33;;;15.43;;
83410;SDS011;73340;53.132;8.174;2024-02-28T04:07:43;43.03;;;14.07;;
83410;SDS011;73340;53.132;8.174;2024-02-28T04:10:08;45.17;;;14.53;;
83410;SDS011;73340;53.132;8.174;2024-02-28T04:12:36;36.78;;;13.10;;
83410;SDS011;73340;53.132;8.174;2024-02-28T04:15:01;45.03;;;14.77;;
83410;SDS011;73340;53.132;8.174;2024-02-28T04:17:26;46.10;;;15.53;;
83410;SDS011;73340;53.132;8.174;2024-02-28T04:19:51;41.33;;;13.10;;
83410;SDS011;73340;53.132;8.174;2024-02-28T04:22:16;40.23;;;14.13;;
83410;SDS011;73340;53.132;8.174;2024-02-28T04:24:41;50.80;;;15.17;;
83410;SDS011;73340;53.132;8.174;2024-02-28T04:27:07;46.20;;;14.77;;
83410;SDS011;73340;53.132;8.174;2024-02-28T04:29:35;48.92;;;15.93;;
83410;SDS011;73340;53.132;8.174;2024-02-28T04:32:00;44.23;;;15.33;;
83410;SDS011;73340;53.132;8.174;2024-02-28T04:34:25;51.43;;;15.27;;
83410;SDS011;73340;53.132;8.174;2024-02-28T04:36:50;47.37;;;15.53;;
83410;SDS011;73340;53.132;8.174;2024-02-28T04:39:15;50.73;;;17.13;;
83410;SDS011;73340;53.132;8.174;2024-02-28T04:44:06;46.28;;;16.27;;
83410;SDS011;73340;53.132;8.174;2024-02-28T04:46:32;48.90;;;16.43;;
83410;SDS011;73340;53.132;8.174;2024-02-28T04:48:57;48.40;;;15.82;;
83410;SDS011;73340;53.132;8.174;2024-02-28T04:51:22;51.27;;;16.33;;
83410;SDS011;73340;53.132;8.174;2024-02-28T04:53:48;50.70;;;16.80;;
83410;SDS011;73340;53.132;8.174;2024-02-28T04:56:13;52.83;;;18.07;;
83410;SDS011;73340;53.132;8.174;2024-02-28T04:58:38;57.80;;;17.13;;
83410;SDS011;73340;53.132;8.174;2024-02-28T05:01:03;53.97;;;17.10;;
83410;SDS011;73340;53.132;8.174;2024-02-28T05:03:29;44.30;;;15.97;;
83410;SDS011;73340;53.132;8.174;2024-02-28T05:05:54;49.57;;;15.80;;
83410;SDS011;73340;53.132;8.174;2024-02-28T05:08:19;45.43;;;16.30;;
83410;SDS011;73340;53.132;8.174;2024-02-28T05:10:45;50.22;;;15.80;;
83410;SDS011;73340;53.132;8.174;2024-02-28T05:13:10;56.90;;;16.53;;
83410;SDS011;73340;53.132;8.174;2024-02-28T05:15:35;51.47;;;17.07;;
83410;SDS011;73340;53.132;8.174;2024-02-28T05:18:00;54.27;;;18.40;;
83410;SDS011;73340;53.132;8.174;2024-02-28T05:20:25;64.73;;;20.13;;
83410;SDS011;73340;53.132;8.174;2024-02-28T05:22:50;47.43;;;15.70;;
83410;SDS011;73340;53.132;8.174;2024-02-28T05:25:16;50.10;;;17.27;;
83410;SDS011;73340;53.132;8.174;2024-02-28T05:27:41;60.13;;;17.73;;
83410;SDS011;73340;53.132;8.174;2024-02-28T05:30:06;47.37;;;16.47;;
83410;SDS011;73340;53.132;8.174;2024-02-28T05:32:32;54.88;;;17.15;;
83410;SDS011;73340;53.132;8.174;2024-02-28T05:34:57;55.53;;;19.40;;
83410;SDS011;73340;53.132;8.174;2024-02-28T05:37:22;55.30;;;16.97;;
83410;SDS011;73340;53.132;8.174;2024-02-28T05:39:48;49.90;;;17.07;;
83410;SDS011;73340;53.132;8.174;2024-02-28T05:42:13;64.47;;;19.47;;
83410;SDS011;73340;53.132;8.174;2024-02-28T05:44:38;52.33;;;17.63;;
83410;SDS011;73340;53.132;8.174;2024-02-28T05:47:04;54.40;;;17.07;;
83410;SDS011;73340;53.132;8.174;2024-02-28T05:49:29;56.80;;;17.02;;
83410;SDS011;73340;53.132;8.174;2024-02-28T05:51:54;59.63;;;18.63;;
83410;SDS011;73340;53.132;8.174;2024-02-28T05:54:20;55.00;;;16.93;;
83410;SDS011;73340;53.132;8.174;2024-02-28T05:56:45;53.73;;;17.30;;
83410;SDS011;73340;53.132;8.174;2024-02-28T05:59:10;57.50;;;17.47;;
83410;SDS011;73340;53.132;8.174;2024-02-28T06:01:35;51.40;;;17.33;;
83410;SDS011;73340;53.132;8.174;2024-02-28T06:04:02;49.87;;;17.13;;
83410;SDS011;73340;53.132;8.174;2024-02-28T06:06:27;55.03;;;18.02;;
83410;SDS011;73340;53.132;8.174;2024-02-28T06:08:52;56.47;;;17.87;;
83410;SDS011;73340;53.132;8.174;2024-02-28T06:11:18;60.90;;;19.03;;
83410;SDS011;73340;53.132;8.174;2024-02-28T06:13:43;58.47;;;17.53;;
83410;SDS011;73340;53.132;8.174;2024-02-28T06:16:13;65.77;;;18.30;;
83410;SDS011;73340;53.132;8.174;2024-02-28T06:18:38;54.92;;;18.65;;
83410;SDS011;73340;53.132;8.174;2024-02-28T06:21:03;58.67;;;18.50;;
83410;SDS011;73340;53.132;8.174;2024-02-28T06:23:29;54.17;;;17.27;;
83410;SDS011;73340;53.132;8.174;2024-02-28T06:25:54;60.47;;;19.07;;
83410;SDS011;73340;53.132;8.174;2024-02-28T06:28:19;64.77;;;19.67;;
83410;SDS011;73340;53.132;8.174;2024-02-28T06:30:45;55.13;;;17.15;;
83410;SDS011;73340;53.132;8.174;2024-02-28T06:33:11;59.85;;;18.73;;
83410;SDS011;73340;53.132;8.174;2024-02-28T06:35:36;63.95;;;18.75;;
83410;SDS011;73340;53.132;8.174;2024-02-28T06:38:01;52.40;;;17.83;;
83410;SDS011;73340;53.132;8.174;2024-02-28T06:40:27;57.27;;;18.77;;
83410;SDS011;73340;53.132;8.174;2024-02-28T06:42:53;53.05;;;16.85;;
83410;SDS011;73340;53.132;8.174;2024-02-28T06:45:18;58.70;;;16.60;;
83410;SDS011;73340;53.132;8.174;2024-02-28T06:47:44;56.10;;;19.23;;
83410;SDS011;73340;53.132;8.174;2024-02-28T06:50:10;55.38;;;18.17;;
83410;SDS011;73340;53.132;8.174;2024-02-28T06:52:35;60.85;;;17.20;;
83410;SDS011;73340;53.132;8.174;2024-02-28T06:55:00;54.20;;;18.27;;
83410;SDS011;73340;53.132;8.174;2024-02-28T06:57:28;57.47;;;17.55;;
83410;SDS011;73340;53.132;8.174;2024-02-28T06:59:53;62.03;;;18.27;;
83410;SDS011;73340;53.132;8.174;2024-02-28T07:02:18;61.33;;;18.67;;
83410;SDS011;73340;53.132;8.174;2024-02-28T07:04:44;54.43;;;17.17;;
83410;SDS011;73340;53.132;8.174;2024-02-28T07:09:34;56.45;;;15.88;;
83410;SDS011;73340;53.132;8.174;2024-02-28T07:11:59;52.67;;;17.02;;
83410;SDS011;73340;53.132;8.174;2024-02-28T07:14:26;53.50;;;16.88;;
83410;SDS011;73340;53.132;8.174;2024-02-28T07:16:51;57.10;;;19.43;;
83410;SDS011;73340;53.132;8.174;2024-02-28T07:19:17;58.58;;;18.25;;
83410;SDS011;73340;53.132;8.174;2024-02-28T07:21:42;62.75;;;18.38;;
83410;SDS011;73340;53.132;8.174;2024-02-28T07:24:08;61.27;;;18.53;;
83410;SDS011;73340;53.132;8.174;2024-02-28T07:26:33;59.30;;;17.30;;
83410;SDS011;73340;53.132;8.174;2024-02-28T07:31:23;55.30;;;16.92;;
83410;SDS011;73340;53.132;8.174;2024-02-28T07:33:48;54.53;;;16.90;;
83410;SDS011;73340;53.132;8.174;2024-02-28T07:36:13;54.20;;;18.23;;
83410;SDS011;73340;53.132;8.174;2024-02-28T07:38:41;60.23;;;19.20;;
83410;SDS011;73340;53.132;8.174;2024-02-28T07:41:06;59.33;;;16.77;;
83410;SDS011;73340;53.132;8.174;2024-02-28T07:43:31;58.60;;;17.37;;
83410;SDS011;73340;53.132;8.174;2024-02-28T07:46:01;48.72;;;17.73;;
83410;SDS011;73340;53.132;8.174;2024-02-28T07:48:27;54.57;;;17.57;;
83410;SDS011;73340;53.132;8.174;2024-02-28T07:50:52;68.70;;;22.83;;
83410;SDS011;73340;53.132;8.174;2024-02-28T07:55:42;56.95;;;16.35;;
83410;SDS011;73340;53.132;8.174;2024-02-28T07:58:07;49.55;;;15.20;;
83410;SDS011;73340;53.132;8.174;2024-02-28T08:00:34;57.45;;;18.02;;
83410;SDS011;73340;53.132;8.174;2024-02-28T08:02:59;51.67;;;18.33;;
83410;SDS011;73340;53.132;8.174;2024-02-28T08:07:49;44.78;;;16.83;;
83410;SDS011;73340;53.132;8.174;2024-02-28T08:10:15;51.73;;;17.90;;
83410;SDS011;73340;53.132;8.174;2024-02-28T08:12:40;43.67;;;15.20;;
83410;SDS011;73340;53.132;8.174;2024-02-28T08:17:30;59.35;;;21.05;;
83410;SDS011;73340;53.132;8.174;2024-02-28T08:19:56;47.40;;;17.60;;
83410;SDS011;73340;53.132;8.174;2024-02-28T08:22:21;47.90;;;15.93;;
83410;SDS011;73340;53.132;8.174;2024-02-28T08:24:46;47.97;;;15.50;;
83410;SDS011;73340;53.132;8.174;2024-02-28T08:27:11;43.73;;;15.63;;
83410;SDS011;73340;53.132;8.174;2024-02-28T08:29:39;38.03;;;16.70;;
83410;SDS011;73340;53.132;8.174;2024-02-28T08:32:08;46.33;;;15.52;;
83410;SDS011;73340;53.132;8.174;2024-02-28T08:34:33;40.90;;;15.23;;
83410;SDS011;73340;53.132;8.174;2024-02-28T08:36:58;48.93;;;17.77;;
83410;SDS011;73340;53.132;8.174;2024-02-28T08:39:24;44.40;;;15.17;;
83410;SDS011;73340;53.132;8.174;2024-02-28T08:41:49;43.25;;;16.85;;
83410;SDS011;73340;53.132;8.174;2024-02-28T08:44:14;40.53;;;14.40;;
83410;SDS011;73340;53.132;8.174;2024-02-28T08:49:05;47.05;;;15.43;;
83410;SDS011;73340;53.132;8.174;2024-02-28T08:51:31;49.40;;;15.37;;
83410;SDS011;73340;53.132;8.174;2024-02-28T08:53:56;43.83;;;14.67;;
83410;SDS011;73340;53.132;8.174;2024-02-28T08:56:24;43.47;;;15.55;;
83410;SDS011;73340;53.132;8.174;2024-02-28T08:58:49;44.53;;;15.90;;
83410;SDS011;73340;53.132;8.174;2024-02-28T09:01:15;47.93;;;15.17;;
83410;SDS011;73340;53.132;8.174;2024-02-28T09:06:05;46.40;;;13.82;;
83410;SDS011;73340;53.132;8.174;2024-02-28T09:08:30;37.63;;;14.83;;
83410;SDS011;73340;53.132;8.174;2024-02-28T09:15:46;47.72;;;15.27;;
83410;SDS011;73340;53.132;8.174;2024-02-28T09:18:11;40.77;;;15.33;;
83410;SDS011;73340;53.132;8.174;2024-02-28T09:20:37;44.72;;;16.45;;
83410;SDS011;73340;53.132;8.174;2024-02-28T09:23:03;46.33;;;15.50;;
83410;SDS011;73340;53.132;8.174;2024-02-28T09:25:28;43.17;;;15.90;;
83410;SDS011;73340;53.132;8.174;2024-02-28T09:30:18;42.72;;;14.77;;
83410;SDS011;73340;53.132;8.174;2024-02-28T09:32:43;41.47;;;15.23;;
83410;SDS011;73340;53.132;8.174;2024-02-28T09:37:36;39.60;;;14.98;;
83410;SDS011;73340;53.132;8.174;2024-02-28T09:40:01;44.13;;;16.67;;
83410;SDS011;73340;53.132;8.174;2024-02-28T09:42:27;41.25;;;13.75;;
83410;SDS011;73340;53.132;8.174;2024-02-28T09:47:18;39.63;;;15.07;;
83410;SDS011;73340;53.132;8.174;2024-02-28T09:52:08;37.83;;;13.90;;
83410;SDS011;73340;53.132;8.174;2024-02-28T09:56:58;47.22;;;17.13;;
83410;SDS011;73340;53.132;8.174;2024-02-28T10:01:53;41.45;;;13.73;;
83410;SDS011;73340;53.132;8.174;2024-02-28T10:04:20;41.40;;;15.73;;
83410;SDS011;73340;53.132;8.174;2024-02-28T10:09:10;43.92;;;15.02;;
83410;SDS011;73340;53.132;8.174;2024-02-28T10:14:01;43.83;;;15.50;;
83410;SDS011;73340;53.132;8.174;2024-02-28T10:16:27;41.22;;;14.90;;
83410;SDS011;73340;53.132;8.174;2024-02-28T10:21:17;41.15;;;14.82;;
83410;SDS011;73340;53.132;8.174;2024-02-28T10:26:11;40.53;;;14.88;;
83410;SDS011;73340;53.132;8.174;2024-02-28T10:28:37;40.03;;;14.25;;
83410;SDS011;73340;53.132;8.174;2024-02-28T10:33:27;40.35;;;14.02;;
83410;SDS011;73340;53.132;8.174;2024-02-28T10:35:54;45.35;;;15.65;;
83410;SDS011;73340;53.132;8.174;2024-02-28T10:40:44;39.88;;;15.10;;
83410;SDS011;73340;53.132;8.174;2024-02-28T10:43:10;39.80;;;14.13;;
83410;SDS011;73340;53.132;8.174;2024-02-28T10:45:36;43.05;;;15.43;;
83410;SDS011;73340;53.132;8.174;2024-02-28T10:48:03;50.85;;;16.77;;
83410;SDS011;73340;53.132;8.174;2024-02-28T10:52:54;36.17;;;12.52;;
83410;SDS011;73340;53.132;8.174;2024-02-28T10:57:44;40.92;;;15.05;;
83410;SDS011;73340;53.132;8.174;2024-02-28T11:00:11;43.25;;;14.38;;
83410;SDS011;73340;53.132;8.174;2024-02-28T11:02:38;41.45;;;16.13;;
83410;SDS011;73340;53.132;8.174;2024-02-28T11:07:30;44.40;;;14.90;;
83410;SDS011;73340;53.132;8.174;2024-02-28T11:09:55;41.47;;;14.88;;
83410;SDS011;73340;53.132;8.174;2024-02-28T11:14:55;36.65;;;12.98;;
83410;SDS011;73340;53.132;8.174;2024-02-28T11:17:25;43.28;;;15.45;;
83410;SDS011;73340;53.132;8.174;2024-02-28T11:19:50;42.65;;;15.13;;
83410;SDS011;73340;53.132;8.174;2024-02-28T11:24:42;42.10;;;15.50;;
83410;SDS011;73340;53.132;8.174;2024-02-28T11:27:11;40.90;;;15.73;;
83410;SDS011;73340;53.132;8.174;2024-02-28T11:29:38;42.95;;;14.88;;
83410;SDS011;73340;53.132;8.174;2024-02-28T11:32:03;46.03;;;14.70;;
83410;SDS011;73340;53.132;8.174;2024-02-28T11:34:29;36.28;;;14.65;;
83410;SDS011;73340;53.132;8.174;2024-02-28T11:39:20;34.73;;;12.67;;
83410;SDS011;73340;53.132;8.174;2024-02-28T11:44:15;41.58;;;15.40;;
83410;SDS011;73340;53.132;8.174;2024-02-28T11:46:46;48.90;;;15.52;;
83410;SDS011;73340;53.132;8.174;2024-02-28T11:49:12;41.67;;;15.15;;
83410;SDS011;73340;53.132;8.174;2024-02-28T11:54:02;35.08;;;14.00;;
83410;SDS011;73340;53.132;8.174;2024-02-28T11:58:53;42.67;;;17.70;;
83410;SDS011;73340;53.132;8.174;2024-02-28T12:01:19;60.50;;;23.40;;
83410;SDS011;73340;53.132;8.174;2024-02-28T12:08:34;37.42;;;14.70;;
83410;SDS011;73340;53.132;8.174;2024-02-28T12:13:25;35.42;;;13.40;;
83410;SDS011;73340;53.132;8.174;2024-02-28T12:18:15;33.78;;;14.85;;
83410;SDS011;73340;53.132;8.174;2024-02-28T12:23:05;36.95;;;14.88;;
83410;SDS011;73340;53.132;8.174;2024-02-28T12:25:33;35.42;;;14.68;;
83410;SDS011;73340;53.132;8.174;2024-02-28T12:27:59;34.40;;;14.48;;
83410;SDS011;73340;53.132;8.174;2024-02-28T12:32:49;31.45;;;12.35;;
83410;SDS011;73340;53.132;8.174;2024-02-28T12:37:40;31.87;;;13.50;;
83410;SDS011;73340;53.132;8.174;2024-02-28T12:42:31;31.90;;;14.73;;
83410;SDS011;73340;53.132;8.174;2024-02-28T12:44:56;38.03;;;13.20;;
83410;SDS011;73340;53.132;8.174;2024-02-28T12:47:21;35.07;;;14.53;;
83410;SDS011;73340;53.132;8.174;2024-02-28T12:49:46;33.83;;;14.23;;
83410;SDS011;73340;53.132;8.174;2024-02-28T12:52:11;38.03;;;14.80;;
83410;SDS011;73340;53.132;8.174;2024-02-28T12:57:02;35.97;;;13.73;;
83410;SDS011;73340;53.132;8.174;2024-02-28T12:59:30;30.83;;;13.80;;
83410;SDS011;73340;53.132;8.174;2024-02-28T13:01:55;36.57;;;15.13;;
83410;SDS011;73340;53.132;8.174;2024-02-28T13:04:20;34.13;;;14.40;;
83410;SDS011;73340;53.132;8.174;2024-02-28T13:06:45;33.20;;;14.97;;
83410;SDS011;73340;53.132;8.174;2024-02-28T13:09:10;36.83;;;14.50;;
83410;SDS011;73340;53.132;8.174;2024-02-28T13:11:38;35.72;;;15.65;;
83410;SDS011;73340;53.132;8.174;2024-02-28T13:14:03;31.63;;;13.82;;
83410;SDS011;73340;53.132;8.174;2024-02-28T13:16:28;30.90;;;15.07;;
83410;SDS011;73340;53.132;8.174;2024-02-28T13:18:53;33.53;;;14.43;;
83410;SDS011;73340;53.132;8.174;2024-02-28T13:21:18;32.73;;;15.50;;
83410;SDS011;73340;53.132;8.174;2024-02-28T13:23:44;35.17;;;15.53;;
83410;SDS011;73340;53.132;8.174;2024-02-28T13:26:09;33.73;;;14.27;;
83410;SDS011;73340;53.132;8.174;2024-02-28T13:28:35;32.47;;;14.45;;
83410;SDS011;73340;53.132;8.174;2024-02-28T13:31:01;40.00;;;16.95;;
83410;SDS011;73340;53.132;8.174;2024-02-28T13:33:26;36.53;;;15.52;;
83410;SDS011;73340;53.132;8.174;2024-02-28T13:35:52;31.85;;;14.35;;
83410;SDS011;73340;53.132;8.174;2024-02-28T13:38:18;31.52;;;15.50;;
83410;SDS011;73340;53.132;8.174;2024-02-28T13:40:43;33.28;;;15.82;;
83410;SDS011;73340;53.132;8.174;2024-02-28T13:43:10;30.73;;;13.95;;
83410;SDS011;73340;53.132;8.174;2024-02-28T13:45:35;31.73;;;14.73;;
83410;SDS011;73340;53.132;8.174;2024-02-28T13:48:00;33.95;;;14.80;;
83410;SDS011;73340;53.132;8.174;2024-02-28T13:50:25;31.60;;;15.00;;
83410;SDS011;73340;53.132;8.174;2024-02-28T13:52:56;55.60;;;24.92;;
83410;SDS011;73340;53.132;8.174;2024-02-28T13:55:21;32.35;;;15.57;;
83410;SDS011;73340;53.132;8.174;2024-02-28T13:57:47;28.50;;;13.87;;
83410;SDS011;73340;53.132;8.174;2024-02-28T14:00:12;33.93;;;14.83;;
83410;SDS011;73340;53.132;8.174;2024-02-28T14:02:38;33.65;;;14.57;;
83410;SDS011;73340;53.132;8.174;2024-02-28T14:05:04;30.20;;;14.57;;
83410;SDS011;73340;53.132;8.174;2024-02-28T14:07:29;31.25;;;14.88;;
83410;SDS011;73340;53.132;8.174;2024-02-28T14:09:54;34.03;;;14.70;;
83410;SDS011;73340;53.132;8.174;2024-02-28T14:12:21;34.40;;;15.30;;
83410;SDS011;73340;53.132;8.174;2024-02-28T14:14:47;32.53;;;15.20;;
83410;SDS011;73340;53.132;8.174;2024-02-28T14:17:12;32.53;;;15.27;;
83410;SDS011;73340;53.132;8.174;2024-02-28T14:19:37;31.87;;;13.73;;
83410;SDS011;73340;53.132;8.174;2024-02-28T14:22:03;33.70;;;14.83;;
83410;SDS011;73340;53.132;8.174;2024-02-28T14:24:28;27.58;;;13.32;;
83410;SDS011;73340;53.132;8.174;2024-02-28T14:26:54;33.75;;;14.02;;
83410;SDS011;73340;53.132;8.174;2024-02-28T14:29:19;31.27;;;12.93;;
83410;SDS011;73340;53.132;8.174;2024-02-28T14:31:44;36.53;;;16.43;;
83410;SDS011;73340;53.132;8.174;2024-02-28T14:34:09;38.47;;;16.93;;
83410;SDS011;73340;53.132;8.174;2024-02-28T14:36:34;37.70;;;15.90;;
83410;SDS011;73340;53.132;8.174;2024-02-28T14:39:00;28.53;;;13.97;;
83410;SDS011;73340;53.132;8.174;2024-02-28T14:41:25;30.77;;;13.93;;
83410;SDS011;73340;53.132;8.174;2024-02-28T14:43:50;29.17;;;13.30;;
83410;SDS011;73340;53.132;8.174;2024-02-28T14:46:15;29.37;;;13.93;;
83410;SDS011;73340;53.132;8.174;2024-02-28T14:48:46;32.25;;;14.05;;
83410;SDS011;73340;53.132;8.174;2024-02-28T14:51:16;27.48;;;13.80;;
83410;SDS011;73340;53.132;8.174;2024-02-28T14:53:41;26.77;;;13.30;;
83410;SDS011;73340;53.132;8.174;2024-02-28T14:56:06;24.47;;;12.33;;
83410;SDS011;73340;53.132;8.174;2024-02-28T14:58:31;28.30;;;12.10;;
83410;SDS011;73340;53.132;8.174;2024-02-28T15:00:57;27.43;;;15.27;;
83410;SDS011;73340;53.132;8.174;2024-02-28T15:03:25;30.42;;;14.05;;
83410;SDS011;73340;53.132;8.174;2024-02-28T15:05:50;28.60;;;13.53;;
83410;SDS011;73340;53.132;8.174;2024-02-28T15:08:15;30.83;;;14.43;;
83410;SDS011;73340;53.132;8.174;2024-02-28T15:10:40;32.27;;;16.10;;
83410;SDS011;73340;53.132;8.174;2024-02-28T15:13:06;30.87;;;15.47;;
83410;SDS011;73340;53.132;8.174;2024-02-28T15:15:32;37.33;;;16.67;;
83410;SDS011;73340;53.132;8.174;2024-02-28T15:17:57;37.60;;;15.03;;
83410;SDS011;73340;53.132;8.174;2024-02-28T15:20:23;33.00;;;15.55;;
83410;SDS011;73340;53.132;8.174;2024-02-28T15:22:48;45.60;;;20.50;;
83410;SDS011;73340;53.132;8.174;2024-02-28T15:25:13;44.37;;;22.30;;
83410;SDS011;73340;53.132;8.174;2024-02-28T15:27:39;32.53;;;15.87;;
83410;SDS011;73340;53.132;8.174;2024-02-28T15:30:04;33.87;;;15.07;;
83410;SDS011;73340;53.132;8.174;2024-02-28T15:32:30;37.28;;;16.98;;
83410;SDS011;73340;53.132;8.174;2024-02-28T15:34:55;32.40;;;15.75;;
83410;SDS011;73340;53.132;8.174;2024-02-28T15:37:20;34.87;;;16.90;;
83410;SDS011;73340;53.132;8.174;2024-02-28T15:39:46;41.35;;;17.80;;
83410;SDS011;73340;53.132;8.174;2024-02-28T15:42:11;37.63;;;17.73;;
83410;SDS011;73340;53.132;8.174;2024-02-28T15:44:37;36.20;;;16.17;;
83410;SDS011;73340;53.132;8.174;2024-02-28T15:47:03;40.47;;;16.07;;
83410;SDS011;73340;53.132;8.174;2024-02-28T15:49:28;39.67;;;17.07;;
83410;SDS011;73340;53.132;8.174;2024-02-28T15:51:53;35.83;;;16.27;;